KBTP/BTP METAR and TAF weather

Enter ICAO airport designator
Station Type Date Time Source
KBTP METAR 2018/01/21 12:11 UTC NOAA

KBTP 211211Z AUTO 00000KT 1/2SM -RA FG OVC004 03/03 A3012 RMK AO2 P0001 RVRNO


Station Type Date Time Source
KBTP Decoded METAR 2018/01/21 12:11 UTC NOAA

Butler, Butler County Airport/K W Scholter Field, PA, United States (KBTP) 40-47N 079-57W
Jan 21, 2018 - 07:11 AM EST / 2018.01.21 1211 UTC
Wind: Calm:0
Visibility: 1/2 mile(s):0
Sky conditions: overcast
Weather: light rain; fog
Precipitation last hour: 0.01 inches
Temperature: 37 F (3 C)
Dew Point: 37 F (3 C)
Relative Humidity: 100%
Pressure (altimeter): 30.12 in. Hg (1019 hPa)
ob: KBTP 211211Z AUTO 00000KT 1/2SM -RA FG OVC004 03/03 A3012 RMK AO2 P0001 RVRNO
cycle: 12

Station Type Date Time Source
KBTP TAF UTC NOAA

Error!


Example: see airport list